Terminal Aerodrome Forecast
Issued by NWS

Home | Current Version | Previous Version | Text Only | Print | Product List | Glossary On
Versions: 1 2 3 4 5 6 7 8 9 10 11 12 13 14 15 16 17 18 19 20 21 22 23 24 25
707
FTUS41 KPBZ 161129
TAFDUJ
TAF
KDUJ 161129Z 1612/1712 25010G16KT 3SM -SN OVC012
      TEMPO 1612/1616 26011KT 1SM -SN OVC008
     FM161900 26010KT P6SM VCSH OVC015
     FM170000 26005KT P6SM BKN015
     FM171100 00000KT P6SM SCT015=

USA.gov is the U.S. government's official web portal to all federal, state and local government web resources and services.